Terminal Aerodrome Forecast
Issued by NWS

Home | Current Version | Previous Version | Text Only | Print | Product List | Glossary Off
Versions: 1 2 3 4 5 6 7 8 9 10 11 12 13 14 15 16 17 18 19 20

000
FTUS43 KTOP 211125
TAFFOE
TAF
KFOE 211125Z 2112/2212 18010KT P6SM BKN200
     FM211400 21012KT P6SM SCT060 BKN150
     FM212200 24007KT P6SM VCTS BKN080CB
     FM220300 27005KT 3SM TSRA SCT025 BKN050CB=

USA.gov is the U.S. government's official web portal to all federal, state and local government web resources and services.